MST,Max TemperatureF,Mean TemperatureF,Min TemperatureF,Max Dew PointF,MeanDew PointF,Min DewpointF,Max Humidity, Mean Humidity, Min Humidity, Max Sea Level PressureIn, Mean Sea Level PressureIn, Min Sea Level PressureIn, Max VisibilityMiles, Mean VisibilityMiles, Min VisibilityMiles, Max Wind SpeedMPH, Mean Wind SpeedMPH, Max Gust SpeedMPH,PrecipitationIn, CloudCover, Events, WindDirDegrees
2010-10-1,80,63,45,41,37,34,65,42,19,30.12,30.06,30.00,10,10,10,15,3,20,0.00,0,,227
2010-10-2,77,60,43,48,41,36,77,52,27,30.36,30.11,30.06,10,10,10,20,4,30,T,1,Thunderstorm,125
2010-10-3,73,59,44,48,43,34,86,57,27,30.12,30.05,29.98,10,10,10,37,6,49,0.01,2,Rain,217
2010-10-4,69,54,39,50,44,36,93,63,32,30.25,30.09,29.94,10,8,1,26,8,39,0.53,4,Rain,200
2010-10-5,58,51,43,49,46,39,93,83,72,30.28,30.09,29.92,10,8,1,23,6,31,1.04,7,Rain,173
2010-10-6,54,49,44,50,46,42,100,93,86,30.27,30.16,30.03,10,8,1,35,11,46,0.87,7,Rain,177
2010-10-7,61,49,36,45,36,27,93,65,36,30.12,30.06,30.01,10,10,8,32,11,44,0.00,1,,209
2010-10-8,65,47,29,33,29,21,92,58,23,30.23,30.15,30.09,10,10,10,16,3,18,0.00,0,,199
2010-10-9,66,48,29,36,33,27,85,60,34,30.28,30.20,30.14,10,10,10,13,4,17,0.00,0,,72
2010-10-10,63,49,35,36,33,31,89,60,30,30.13,30.06,29.98,10,10,8,28,9,33,0.00,0,,68
2010-10-11,69,50,30,37,33,28,92,60,27,30.13,30.07,30.01,10,10,10,13,3,16,0.00,0,,74
2010-10-12,69,52,35,41,36,32,92,62,32,30.22,30.15,30.06,10,10,10,16,4,24,0.00,0,,74
2010-10-13,71,55,39,37,35,34,82,53,26,30.29,30.23,30.15,10,10,10,10,5,16,0.00,0,,77
2010-10-14,71,53,35,41,35,30,89,56,23,30.35,30.26,30.18,10,10,10,10,2,16,0.00,2,,80
2010-10-15,71,53,35,42,35,31,89,56,23,30.24,30.15,30.09,10,10,10,14,2,20,0.00,2,,310
2010-10-16,69,52,34,42,35,31,89,58,26,30.17,30.11,30.07,10,10,10,14,2,20,0.00,2,,147
2010-10-17,66,52,37,46,41,35,93,67,40,30.12,30.05,29.96,10,10,7,23,4,33,0.06,4,Rain,218
2010-10-18,64,50,36,46,41,35,96,70,43,30.08,29.99,29.90,10,10,10,16,2,23,0.01,3,,108
2010-10-19,63,50,37,42,39,36,92,66,39,30.16,29.98,29.92,10,9,2,16,6,23,T,2,Rain,87
2010-10-20,58,48,38,46,42,32,93,72,51,30.18,30.02,29.88,10,9,2,18,4,26,0.18,6,Rain-Thunderstorm,205
2010-10-21,52,43,33,40,38,32,100,78,56,30.13,30.04,29.92,10,7,0,14,5,17,0.10,7,Fog-Rain,223
2010-10-22,48,44,40,41,39,37,93,82,71,30.10,30.02,29.91,10,9,1,17,7,22,0.12,8,Rain,242
2010-10-23,51,46,40,41,39,37,93,82,71,30.21,30.07,29.95,10,10,10,18,7,23,0.01,7,Rain,238
2010-10-24,55,45,34,43,39,33,92,73,54,30.21,30.05,29.83,10,9,4,22,9,26,0.00,4,,237
2010-10-25,53,42,31,43,39,24,92,76,59,29.96,29.80,29.68,10,9,3,30,12,38,T,6,,241
2010-10-26,53,41,29,30,23,17,72,50,28,29.90,29.85,29.77,10,10,10,23,8,30,0.00,0,,243
2010-10-27,47,37,26,17,12,7,51,39,27,30.35,30.18,29.91,10,10,10,23,10,29,0.00,0,,52
2010-10-28,61,44,26,30,21,9,85,57,29,30.43,30.34,30.26,10,10,10,13,5,16,0.00,0,,49
2010-10-29,66,47,28,36,30,25,85,58,30,30.31,30.19,30.06,10,10,10,23,5,30,0.00,0,,206
2010-10-30,59,45,30,33,29,26,85,58,30,30.04,29.99,29.90,10,10,9,39,12,54,0.00,0,,229
2010-10-31,58,42,26,35,28,23,85,61,36,30.24,30.13,30.04,10,10,10,12,2,15,0.00,0,,168